sensor_id;sensor_type;location;lat;lon;timestamp;pressure;altitude;pressure_sealevel;temperature
51149;BMP280;37210;50.058;8.688;2022-08-25T00:02:05;100286.75;;;23.20
51149;BMP280;37210;50.058;8.688;2022-08-25T00:04:35;100291.31;;;22.82
51149;BMP280;37210;50.058;8.688;2022-08-25T00:07:05;100328.44;;;23.39
51149;BMP280;37210;50.058;8.688;2022-08-25T00:09:34;100273.06;;;23.09
51149;BMP280;37210;50.058;8.688;2022-08-25T00:12:04;100280.22;;;23.25
51149;BMP280;37210;50.058;8.688;2022-08-25T00:14:35;100273.44;;;23.01
51149;BMP280;37210;50.058;8.688;2022-08-25T00:17:08;100325.31;;;23.65
51149;BMP280;37210;50.058;8.688;2022-08-25T00:19:37;100314.78;;;23.45
51149;BMP280;37210;50.058;8.688;2022-08-25T00:22:06;100326.22;;;23.64
51149;BMP280;37210;50.058;8.688;2022-08-25T00:24:34;100329.91;;;23.79
51149;BMP280;37210;50.058;8.688;2022-08-25T00:27:06;100337.16;;;23.60
51149;BMP280;37210;50.058;8.688;2022-08-25T00:29:34;100316.00;;;23.72
51149;BMP280;37210;50.058;8.688;2022-08-25T00:32:04;100327.00;;;23.66
51149;BMP280;37210;50.058;8.688;2022-08-25T00:34:35;100266.69;;;22.94
51149;BMP280;37210;50.058;8.688;2022-08-25T00:37:06;100329.63;;;23.34
51149;BMP280;37210;50.058;8.688;2022-08-25T00:39:38;100332.13;;;22.84
51149;BMP280;37210;50.058;8.688;2022-08-25T00:42:07;100273.00;;;23.27
51149;BMP280;37210;50.058;8.688;2022-08-25T00:44:36;100322.94;;;23.59
51149;BMP280;37210;50.058;8.688;2022-08-25T00:47:04;100312.44;;;23.89
51149;BMP280;37210;50.058;8.688;2022-08-25T00:49:39;100304.97;;;23.96
51149;BMP280;37210;50.058;8.688;2022-08-25T00:52:12;100324.34;;;24.16
51149;BMP280;37210;50.058;8.688;2022-08-25T00:54:45;100326.94;;;24.18
51149;BMP280;37210;50.058;8.688;2022-08-25T00:57:23;100249.81;;;23.62
51149;BMP280;37210;50.058;8.688;2022-08-25T00:59:54;100311.72;;;24.03
51149;BMP280;37210;50.058;8.688;2022-08-25T01:02:26;100324.25;;;24.18
51149;BMP280;37210;50.058;8.688;2022-08-25T01:04:55;100283.59;;;23.96
51149;BMP280;37210;50.058;8.688;2022-08-25T01:07:23;100328.44;;;23.73
51149;BMP280;37210;50.058;8.688;2022-08-25T01:09:52;100303.41;;;23.92
51149;BMP280;37210;50.058;8.688;2022-08-25T01:12:21;100210.75;;;23.44
51149;BMP280;37210;50.058;8.688;2022-08-25T01:14:49;100282.38;;;23.36
51149;BMP280;37210;50.058;8.688;2022-08-25T01:17:17;100322.38;;;23.70
51149;BMP280;37210;50.058;8.688;2022-08-25T01:19:45;100313.00;;;23.78
51149;BMP280;37210;50.058;8.688;2022-08-25T01:22:16;100326.88;;;24.02
51149;BMP280;37210;50.058;8.688;2022-08-25T01:24:55;100308.41;;;23.98
51149;BMP280;37210;50.058;8.688;2022-08-25T01:27:27;100328.88;;;23.99
51149;BMP280;37210;50.058;8.688;2022-08-25T01:29:54;100328.31;;;24.09
51149;BMP280;37210;50.058;8.688;2022-08-25T01:32:23;100261.13;;;23.67
51149;BMP280;37210;50.058;8.688;2022-08-25T01:34:51;100306.00;;;23.93
51149;BMP280;37210;50.058;8.688;2022-08-25T01:37:20;100330.81;;;23.95
51149;BMP280;37210;50.058;8.688;2022-08-25T01:39:47;100320.47;;;23.89
51149;BMP280;37210;50.058;8.688;2022-08-25T01:42:23;100334.00;;;23.86
51149;BMP280;37210;50.058;8.688;2022-08-25T01:45:00;100317.09;;;23.86
51149;BMP280;37210;50.058;8.688;2022-08-25T01:47:27;100287.41;;;23.74
51149;BMP280;37210;50.058;8.688;2022-08-25T01:49:57;100233.34;;;23.37
51149;BMP280;37210;50.058;8.688;2022-08-25T01:52:32;100311.31;;;23.60
51149;BMP280;37210;50.058;8.688;2022-08-25T01:55:03;100327.97;;;23.65
51149;BMP280;37210;50.058;8.688;2022-08-25T01:57:33;100326.56;;;23.58
51149;BMP280;37210;50.058;8.688;2022-08-25T02:00:00;100324.91;;;23.56
51149;BMP280;37210;50.058;8.688;2022-08-25T02:02:37;100327.97;;;23.48
51149;BMP280;37210;50.058;8.688;2022-08-25T02:05:11;100328.22;;;23.61
51149;BMP280;37210;50.058;8.688;2022-08-25T02:07:42;100327.97;;;23.48
51149;BMP280;37210;50.058;8.688;2022-08-25T02:10:11;100238.28;;;23.10
51149;BMP280;37210;50.058;8.688;2022-08-25T02:12:42;100283.13;;;23.21
51149;BMP280;37210;50.058;8.688;2022-08-25T02:15:10;100234.81;;;22.91
51149;BMP280;37210;50.058;8.688;2022-08-25T02:17:39;100330.94;;;23.59
51149;BMP280;37210;50.058;8.688;2022-08-25T02:20:07;100210.56;;;22.78
51149;BMP280;37210;50.058;8.688;2022-08-25T02:22:35;100327.44;;;23.59
51149;BMP280;37210;50.058;8.688;2022-08-25T02:25:05;100302.63;;;23.40
51149;BMP280;37210;50.058;8.688;2022-08-25T02:27:34;100332.03;;;23.55
51149;BMP280;37210;50.058;8.688;2022-08-25T02:30:02;100343.03;;;23.49
51149;BMP280;37210;50.058;8.688;2022-08-25T02:32:30;100336.91;;;23.47
51149;BMP280;37210;50.058;8.688;2022-08-25T02:34:58;100325.31;;;23.48
51149;BMP280;37210;50.058;8.688;2022-08-25T02:37:26;100337.41;;;23.38
51149;BMP280;37210;50.058;8.688;2022-08-25T02:39:53;100327.19;;;23.46
51149;BMP280;37210;50.058;8.688;2022-08-25T02:42:22;100326.41;;;23.44
51149;BMP280;37210;50.058;8.688;2022-08-25T02:44:50;100328.91;;;23.47
51149;BMP280;37210;50.058;8.688;2022-08-25T02:47:17;100325.84;;;23.38
51149;BMP280;37210;50.058;8.688;2022-08-25T02:49:44;100335.91;;;23.33
51149;BMP280;37210;50.058;8.688;2022-08-25T02:52:12;100334.19;;;23.30
51149;BMP280;37210;50.058;8.688;2022-08-25T02:54:40;100329.00;;;23.10
51149;BMP280;37210;50.058;8.688;2022-08-25T02:57:07;100315.22;;;23.19
51149;BMP280;37210;50.058;8.688;2022-08-25T02:59:38;100306.44;;;23.17
51149;BMP280;37210;50.058;8.688;2022-08-25T03:02:06;100326.22;;;23.13
51149;BMP280;37210;50.058;8.688;2022-08-25T03:04:33;100326.66;;;23.04
51149;BMP280;37210;50.058;8.688;2022-08-25T03:07:01;100324.69;;;23.08
51149;BMP280;37210;50.058;8.688;2022-08-25T03:09:30;100322.75;;;23.11
51149;BMP280;37210;50.058;8.688;2022-08-25T03:11:58;100328.00;;;23.13
51149;BMP280;37210;50.058;8.688;2022-08-25T03:14:25;100329.97;;;23.09
51149;BMP280;37210;50.058;8.688;2022-08-25T03:16:54;100295.00;;;22.79
51149;BMP280;37210;50.058;8.688;2022-08-25T03:19:21;100321.47;;;23.01
51149;BMP280;37210;50.058;8.688;2022-08-25T03:21:49;100321.31;;;23.04
51149;BMP280;37210;50.058;8.688;2022-08-25T03:24:17;100320.31;;;23.07
51149;BMP280;37210;50.058;8.688;2022-08-25T03:26:44;100317.16;;;22.98
51149;BMP280;37210;50.058;8.688;2022-08-25T03:29:22;100317.72;;;22.69
51149;BMP280;37210;50.058;8.688;2022-08-25T03:31:51;100279.94;;;22.60
51149;BMP280;37210;50.058;8.688;2022-08-25T03:34:21;100313.66;;;22.79
51149;BMP280;37210;50.058;8.688;2022-08-25T03:36:51;100311.00;;;22.79
51149;BMP280;37210;50.058;8.688;2022-08-25T03:41:48;100302.69;;;22.85
51149;BMP280;37210;50.058;8.688;2022-08-25T03:46:47;100299.50;;;22.60
51149;BMP280;37210;50.058;8.688;2022-08-25T03:49:19;100314.78;;;22.55
51149;BMP280;37210;50.058;8.688;2022-08-25T03:51:51;100302.03;;;22.63
51149;BMP280;37210;50.058;8.688;2022-08-25T03:54:22;100280.03;;;22.58
51149;BMP280;37210;50.058;8.688;2022-08-25T03:56:51;100307.59;;;22.39
51149;BMP280;37210;50.058;8.688;2022-08-25T03:59:19;100297.59;;;22.44
51149;BMP280;37210;50.058;8.688;2022-08-25T04:01:46;100317.84;;;22.48
51149;BMP280;37210;50.058;8.688;2022-08-25T04:04:14;100320.91;;;22.57
51149;BMP280;37210;50.058;8.688;2022-08-25T04:06:46;100317.06;;;22.27
51149;BMP280;37210;50.058;8.688;2022-08-25T04:09:14;100312.13;;;22.37
51149;BMP280;37210;50.058;8.688;2022-08-25T04:11:41;100307.75;;;22.36
51149;BMP280;37210;50.058;8.688;2022-08-25T04:14:08;100299.31;;;22.26
51149;BMP280;37210;50.058;8.688;2022-08-25T04:16:36;100308.88;;;22.11
51149;BMP280;37210;50.058;8.688;2022-08-25T04:19:06;100302.66;;;22.12
51149;BMP280;37210;50.058;8.688;2022-08-25T04:21:35;100296.94;;;22.20
51149;BMP280;37210;50.058;8.688;2022-08-25T04:24:06;100291.47;;;22.04
51149;BMP280;37210;50.058;8.688;2022-08-25T04:26:37;100301.34;;;22.21
51149;BMP280;37210;50.058;8.688;2022-08-25T04:29:09;100291.31;;;22.26
51149;BMP280;37210;50.058;8.688;2022-08-25T04:31:39;100240.84;;;21.86
51149;BMP280;37210;50.058;8.688;2022-08-25T04:34:08;100297.03;;;22.37
51149;BMP280;37210;50.058;8.688;2022-08-25T04:36:36;100291.03;;;22.32
51149;BMP280;37210;50.058;8.688;2022-08-25T04:39:06;100294.56;;;22.33
51149;BMP280;37210;50.058;8.688;2022-08-25T04:41:33;100291.63;;;22.39
51149;BMP280;37210;50.058;8.688;2022-08-25T04:44:01;100291.84;;;22.34
51149;BMP280;37210;50.058;8.688;2022-08-25T04:46:30;100269.00;;;22.10
51149;BMP280;37210;50.058;8.688;2022-08-25T04:49:00;100252.22;;;21.89
51149;BMP280;37210;50.058;8.688;2022-08-25T04:51:30;100298.97;;;22.15
51149;BMP280;37210;50.058;8.688;2022-08-25T04:54:03;100282.03;;;22.16
51149;BMP280;37210;50.058;8.688;2022-08-25T04:56:34;100304.22;;;22.35
51149;BMP280;37210;50.058;8.688;2022-08-25T04:59:04;100298.59;;;22.22
51149;BMP280;37210;50.058;8.688;2022-08-25T05:01:34;100308.97;;;22.47
51149;BMP280;37210;50.058;8.688;2022-08-25T05:04:04;100304.44;;;22.31
51149;BMP280;37210;50.058;8.688;2022-08-25T05:06:33;100300.69;;;22.35
51149;BMP280;37210;50.058;8.688;2022-08-25T05:09:02;100288.91;;;22.21
51149;BMP280;37210;50.058;8.688;2022-08-25T05:11:32;100296.81;;;22.23
51149;BMP280;37210;50.058;8.688;2022-08-25T05:14:00;100296.31;;;22.15
51149;BMP280;37210;50.058;8.688;2022-08-25T05:16:30;100302.16;;;21.84
51149;BMP280;37210;50.058;8.688;2022-08-25T05:18:58;100304.81;;;22.42
51149;BMP280;37210;50.058;8.688;2022-08-25T05:21:26;100308.97;;;22.66
51149;BMP280;37210;50.058;8.688;2022-08-25T05:23:55;100297.09;;;22.54
51149;BMP280;37210;50.058;8.688;2022-08-25T05:26:26;100256.31;;;22.52
51149;BMP280;37210;50.058;8.688;2022-08-25T05:28:59;100294.25;;;22.57
51149;BMP280;37210;50.058;8.688;2022-08-25T05:31:30;100276.78;;;22.70
51149;BMP280;37210;50.058;8.688;2022-08-25T05:33:58;100285.41;;;22.75
51149;BMP280;37210;50.058;8.688;2022-08-25T05:36:27;100297.97;;;22.73
51149;BMP280;37210;50.058;8.688;2022-08-25T05:38:55;100279.16;;;22.93
51149;BMP280;37210;50.058;8.688;2022-08-25T05:41:26;100295.41;;;22.89
51149;BMP280;37210;50.058;8.688;2022-08-25T05:43:57;100277.72;;;23.39
51149;BMP280;37210;50.058;8.688;2022-08-25T05:46:25;100276.06;;;23.20
51149;BMP280;37210;50.058;8.688;2022-08-25T05:48:53;100276.28;;;23.15
51149;BMP280;37210;50.058;8.688;2022-08-25T05:51:20;100279.59;;;23.37
51149;BMP280;37210;50.058;8.688;2022-08-25T05:53:49;100279.19;;;23.28
51149;BMP280;37210;50.058;8.688;2022-08-25T05:56:18;100285.41;;;23.11
51149;BMP280;37210;50.058;8.688;2022-08-25T05:58:46;100281.59;;;23.34
51149;BMP280;37210;50.058;8.688;2022-08-25T06:01:23;100257.06;;;23.93
51149;BMP280;37210;50.058;8.688;2022-08-25T06:04:10;100277.66;;;23.91
51149;BMP280;37210;50.058;8.688;2022-08-25T06:06:38;100268.91;;;23.87
51149;BMP280;37210;50.058;8.688;2022-08-25T06:09:07;100279.94;;;23.81
51149;BMP280;37210;50.058;8.688;2022-08-25T06:11:36;100264.78;;;23.97
51149;BMP280;37210;50.058;8.688;2022-08-25T06:14:04;100273.84;;;24.58
51149;BMP280;37210;50.058;8.688;2022-08-25T06:16:33;100276.59;;;24.73
51149;BMP280;37210;50.058;8.688;2022-08-25T06:19:01;100272.88;;;24.59
51149;BMP280;37210;50.058;8.688;2022-08-25T06:21:28;100267.88;;;25.30
51149;BMP280;37210;50.058;8.688;2022-08-25T06:23:56;100266.50;;;25.67
51149;BMP280;37210;50.058;8.688;2022-08-25T06:26:23;100227.75;;;25.58
51149;BMP280;37210;50.058;8.688;2022-08-25T06:28:52;100249.97;;;25.88
51149;BMP280;37210;50.058;8.688;2022-08-25T06:31:20;100264.63;;;26.25
51149;BMP280;37210;50.058;8.688;2022-08-25T06:33:49;100266.22;;;25.85
51149;BMP280;37210;50.058;8.688;2022-08-25T06:36:18;100261.94;;;25.97
51149;BMP280;37210;50.058;8.688;2022-08-25T06:38:46;100260.22;;;25.68
51149;BMP280;37210;50.058;8.688;2022-08-25T06:41:14;100249.94;;;26.31
51149;BMP280;37210;50.058;8.688;2022-08-25T06:43:42;100266.91;;;26.31
51149;BMP280;37210;50.058;8.688;2022-08-25T06:46:11;100260.78;;;26.29
51149;BMP280;37210;50.058;8.688;2022-08-25T06:48:41;100264.69;;;27.05
51149;BMP280;37210;50.058;8.688;2022-08-25T06:51:12;100265.19;;;25.74
51149;BMP280;37210;50.058;8.688;2022-08-25T06:53:42;100261.03;;;26.79
51149;BMP280;37210;50.058;8.688;2022-08-25T06:56:10;100263.28;;;26.18
51149;BMP280;37210;50.058;8.688;2022-08-25T06:58:38;100257.03;;;26.99
51149;BMP280;37210;50.058;8.688;2022-08-25T07:01:07;100256.56;;;27.32
51149;BMP280;37210;50.058;8.688;2022-08-25T07:03:36;100243.50;;;28.03
51149;BMP280;37210;50.058;8.688;2022-08-25T07:06:03;100257.50;;;28.08
51149;BMP280;37210;50.058;8.688;2022-08-25T07:08:33;100224.13;;;28.10
51149;BMP280;37210;50.058;8.688;2022-08-25T07:11:04;100231.78;;;28.40
51149;BMP280;37210;50.058;8.688;2022-08-25T07:13:32;100257.06;;;27.51
51149;BMP280;37210;50.058;8.688;2022-08-25T07:16:00;100257.69;;;27.42
51149;BMP280;37210;50.058;8.688;2022-08-25T07:18:27;100245.44;;;27.88
51149;BMP280;37210;50.058;8.688;2022-08-25T07:20:55;100239.19;;;28.13
51149;BMP280;37210;50.058;8.688;2022-08-25T07:23:23;100250.81;;;27.63
51149;BMP280;37210;50.058;8.688;2022-08-25T07:25:53;100247.38;;;28.11
51149;BMP280;37210;50.058;8.688;2022-08-25T07:28:22;100233.94;;;28.11
51149;BMP280;37210;50.058;8.688;2022-08-25T07:30:50;100243.22;;;27.18
51149;BMP280;37210;50.058;8.688;2022-08-25T07:33:17;100221.53;;;28.58
51149;BMP280;37210;50.058;8.688;2022-08-25T07:35:46;100221.88;;;26.36
51149;BMP280;37210;50.058;8.688;2022-08-25T07:38:12;100239.88;;;27.14
51149;BMP280;37210;50.058;8.688;2022-08-25T07:40:39;100242.31;;;27.44
51149;BMP280;37210;50.058;8.688;2022-08-25T07:43:09;100245.63;;;26.96
51149;BMP280;37210;50.058;8.688;2022-08-25T07:45:38;100236.97;;;27.05
51149;BMP280;37210;50.058;8.688;2022-08-25T07:48:08;100234.88;;;27.85
51149;BMP280;37210;50.058;8.688;2022-08-25T07:50:38;100197.28;;;27.22
51149;BMP280;37210;50.058;8.688;2022-08-25T07:53:09;100235.69;;;27.49
51149;BMP280;37210;50.058;8.688;2022-08-25T07:55:39;100244.44;;;27.00
51149;BMP280;37210;50.058;8.688;2022-08-25T07:58:10;100240.38;;;27.58
51149;BMP280;37210;50.058;8.688;2022-08-25T08:00:38;100225.44;;;27.80
51149;BMP280;37210;50.058;8.688;2022-08-25T08:03:07;100223.72;;;28.76
51149;BMP280;37210;50.058;8.688;2022-08-25T08:05:35;100223.25;;;28.82
51149;BMP280;37210;50.058;8.688;2022-08-25T08:08:06;100236.94;;;27.56
51149;BMP280;37210;50.058;8.688;2022-08-25T08:10:33;100230.03;;;28.15
51149;BMP280;37210;50.058;8.688;2022-08-25T08:13:04;100219.50;;;28.96
51149;BMP280;37210;50.058;8.688;2022-08-25T08:15:34;100230.13;;;28.63
51149;BMP280;37210;50.058;8.688;2022-08-25T08:18:03;100232.88;;;28.37
51149;BMP280;37210;50.058;8.688;2022-08-25T08:20:31;100197.53;;;29.13
51149;BMP280;37210;50.058;8.688;2022-08-25T08:22:59;100224.72;;;28.39
51149;BMP280;37210;50.058;8.688;2022-08-25T08:25:30;100232.16;;;28.23
51149;BMP280;37210;50.058;8.688;2022-08-25T08:27:57;100232.19;;;28.46
51149;BMP280;37210;50.058;8.688;2022-08-25T08:30:28;100195.53;;;27.84
51149;BMP280;37210;50.058;8.688;2022-08-25T08:32:59;100222.75;;;28.41
51149;BMP280;37210;50.058;8.688;2022-08-25T08:35:27;100184.38;;;28.50
51149;BMP280;37210;50.058;8.688;2022-08-25T08:37:57;100208.84;;;28.11
51149;BMP280;37210;50.058;8.688;2022-08-25T08:40:25;100202.72;;;29.27
51149;BMP280;37210;50.058;8.688;2022-08-25T08:43:04;100208.09;;;29.73
51149;BMP280;37210;50.058;8.688;2022-08-25T08:45:39;100205.97;;;29.43
51149;BMP280;37210;50.058;8.688;2022-08-25T08:48:37;100218.00;;;29.15
51149;BMP280;37210;50.058;8.688;2022-08-25T08:51:18;100201.72;;;29.74
51149;BMP280;37210;50.058;8.688;2022-08-25T08:53:53;100211.09;;;28.77
51149;BMP280;37210;50.058;8.688;2022-08-25T08:56:25;100187.06;;;29.32
51149;BMP280;37210;50.058;8.688;2022-08-25T08:58:58;100183.59;;;29.19
51149;BMP280;37210;50.058;8.688;2022-08-25T09:01:32;100200.88;;;28.93
51149;BMP280;37210;50.058;8.688;2022-08-25T09:04:12;100210.31;;;29.33
51149;BMP280;37210;50.058;8.688;2022-08-25T09:06:47;100173.84;;;29.40
51149;BMP280;37210;50.058;8.688;2022-08-25T09:09:25;100195.66;;;29.37
51149;BMP280;37210;50.058;8.688;2022-08-25T09:12:00;100157.72;;;29.05
51149;BMP280;37210;50.058;8.688;2022-08-25T09:14:50;100168.47;;;29.51
51149;BMP280;37210;50.058;8.688;2022-08-25T09:17:42;100175.25;;;29.79
51149;BMP280;37210;50.058;8.688;2022-08-25T09:20:48;100184.69;;;29.84
51149;BMP280;37210;50.058;8.688;2022-08-25T09:23:33;100164.44;;;29.90
51149;BMP280;37210;50.058;8.688;2022-08-25T09:26:23;100184.91;;;29.59
51149;BMP280;37210;50.058;8.688;2022-08-25T09:29:00;100191.06;;;29.15
51149;BMP280;37210;50.058;8.688;2022-08-25T09:31:39;100183.19;;;29.69
51149;BMP280;37210;50.058;8.688;2022-08-25T09:34:12;100173.22;;;29.26
51149;BMP280;37210;50.058;8.688;2022-08-25T09:36:47;100179.34;;;29.28
51149;BMP280;37210;50.058;8.688;2022-08-25T09:39:21;100173.22;;;29.48
51149;BMP280;37210;50.058;8.688;2022-08-25T09:41:51;100156.81;;;28.94
51149;BMP280;37210;50.058;8.688;2022-08-25T09:44:23;100160.63;;;29.48
51149;BMP280;37210;50.058;8.688;2022-08-25T09:47:14;100174.19;;;28.90
51149;BMP280;37210;50.058;8.688;2022-08-25T09:49:50;100161.72;;;29.00
51149;BMP280;37210;50.058;8.688;2022-08-25T09:52:32;100147.91;;;29.72
51149;BMP280;37210;50.058;8.688;2022-08-25T09:55:23;100143.13;;;29.76
51149;BMP280;37210;50.058;8.688;2022-08-25T09:57:55;100145.31;;;29.27
51149;BMP280;37210;50.058;8.688;2022-08-25T10:00:27;100129.53;;;29.77
51149;BMP280;37210;50.058;8.688;2022-08-25T10:03:03;100100.72;;;29.23
51149;BMP280;37210;50.058;8.688;2022-08-25T10:05:47;100127.69;;;29.56
51149;BMP280;37210;50.058;8.688;2022-08-25T10:08:30;100130.72;;;29.62
51149;BMP280;37210;50.058;8.688;2022-08-25T10:11:02;100136.00;;;28.96
51149;BMP280;37210;50.058;8.688;2022-08-25T10:13:39;100113.34;;;29.77
51149;BMP280;37210;50.058;8.688;2022-08-25T10:16:10;100111.00;;;29.51
51149;BMP280;37210;50.058;8.688;2022-08-25T10:19:00;100093.50;;;29.78
51149;BMP280;37210;50.058;8.688;2022-08-25T10:21:32;100091.66;;;29.79
51149;BMP280;37210;50.058;8.688;2022-08-25T10:24:05;100103.16;;;29.70
51149;BMP280;37210;50.058;8.688;2022-08-25T10:26:43;100095.63;;;30.07
51149;BMP280;37210;50.058;8.688;2022-08-25T10:29:49;100098.75;;;30.34
51149;BMP280;37210;50.058;8.688;2022-08-25T10:32:57;100091.22;;;30.06
51149;BMP280;37210;50.058;8.688;2022-08-25T10:36:08;100096.19;;;29.78
51149;BMP280;37210;50.058;8.688;2022-08-25T10:38:53;100067.88;;;29.73
51149;BMP280;37210;50.058;8.688;2022-08-25T10:41:34;99991.63;;;29.82
51149;BMP280;37210;50.058;8.688;2022-08-25T10:44:20;100052.78;;;30.35
51149;BMP280;37210;50.058;8.688;2022-08-25T10:47:26;100057.38;;;30.65
51149;BMP280;37210;50.058;8.688;2022-08-25T10:50:13;100070.63;;;31.09
51149;BMP280;37210;50.058;8.688;2022-08-25T10:53:00;100074.09;;;30.27
51149;BMP280;37210;50.058;8.688;2022-08-25T10:55:46;100066.69;;;30.09
51149;BMP280;37210;50.058;8.688;2022-08-25T10:58:29;100066.00;;;29.95
51149;BMP280;37210;50.058;8.688;2022-08-25T11:01:29;100056.00;;;29.75
51149;BMP280;37210;50.058;8.688;2022-08-25T11:04:13;100043.97;;;30.54
51149;BMP280;37210;50.058;8.688;2022-08-25T11:06:49;100048.19;;;30.88
51149;BMP280;37210;50.058;8.688;2022-08-25T11:09:27;100034.25;;;31.13
51149;BMP280;37210;50.058;8.688;2022-08-25T11:12:00;100035.09;;;31.44
51149;BMP280;37210;50.058;8.688;2022-08-25T11:14:36;100029.38;;;31.37
51149;BMP280;37210;50.058;8.688;2022-08-25T11:17:15;100023.19;;;31.26
51149;BMP280;37210;50.058;8.688;2022-08-25T11:19:48;100039.81;;;30.91
51149;BMP280;37210;50.058;8.688;2022-08-25T11:22:25;100023.59;;;29.97
51149;BMP280;37210;50.058;8.688;2022-08-25T11:25:06;100050.53;;;30.40
51149;BMP280;37210;50.058;8.688;2022-08-25T11:27:48;100042.72;;;30.37
51149;BMP280;37210;50.058;8.688;2022-08-25T11:30:23;100030.53;;;30.63
51149;BMP280;37210;50.058;8.688;2022-08-25T11:32:56;99980.03;;;30.34
51149;BMP280;37210;50.058;8.688;2022-08-25T11:35:28;100027.25;;;30.39
51149;BMP280;37210;50.058;8.688;2022-08-25T11:38:13;99956.25;;;30.48
51149;BMP280;37210;50.058;8.688;2022-08-25T11:40:59;100033.47;;;30.40
51149;BMP280;37210;50.058;8.688;2022-08-25T11:44:07;100014.25;;;30.33
51149;BMP280;37210;50.058;8.688;2022-08-25T11:46:51;100029.22;;;30.58
51149;BMP280;37210;50.058;8.688;2022-08-25T11:49:50;100028.94;;;30.40
51149;BMP280;37210;50.058;8.688;2022-08-25T11:52:43;100017.78;;;30.75
51149;BMP280;37210;50.058;8.688;2022-08-25T11:55:17;100011.59;;;30.84
51149;BMP280;37210;50.058;8.688;2022-08-25T11:57:50;99995.25;;;30.24
51149;BMP280;37210;50.058;8.688;2022-08-25T12:00:36;100038.00;;;30.08
51149;BMP280;37210;50.058;8.688;2022-08-25T12:06:22;100018.25;;;30.80
51149;BMP280;37210;50.058;8.688;2022-08-25T12:09:15;100022.59;;;30.71
51149;BMP280;37210;50.058;8.688;2022-08-25T12:11:53;100005.50;;;30.61
51149;BMP280;37210;50.058;8.688;2022-08-25T12:14:45;100005.88;;;30.98
51149;BMP280;37210;50.058;8.688;2022-08-25T12:17:23;100023.81;;;30.58
51149;BMP280;37210;50.058;8.688;2022-08-25T12:19:58;100001.38;;;31.08
51149;BMP280;37210;50.058;8.688;2022-08-25T12:22:56;100002.34;;;31.37
51149;BMP280;37210;50.058;8.688;2022-08-25T12:25:48;99993.00;;;31.61
51149;BMP280;37210;50.058;8.688;2022-08-25T12:28:39;99993.72;;;31.63
51149;BMP280;37210;50.058;8.688;2022-08-25T12:31:20;100006.41;;;30.71
51149;BMP280;37210;50.058;8.688;2022-08-25T12:34:25;100001.47;;;30.76
51149;BMP280;37210;50.058;8.688;2022-08-25T12:37:11;99993.38;;;30.97
51149;BMP280;37210;50.058;8.688;2022-08-25T12:39:48;99990.59;;;30.88
51149;BMP280;37210;50.058;8.688;2022-08-25T12:42:29;100001.06;;;30.81
51149;BMP280;37210;50.058;8.688;2022-08-25T12:45:31;99975.72;;;30.93
51149;BMP280;37210;50.058;8.688;2022-08-25T12:48:41;99985.75;;;31.12
51149;BMP280;37210;50.058;8.688;2022-08-25T12:51:24;99983.06;;;31.51
51149;BMP280;37210;50.058;8.688;2022-08-25T12:53:59;99940.22;;;31.07
51149;BMP280;37210;50.058;8.688;2022-08-25T12:56:41;99955.72;;;30.54
51149;BMP280;37210;50.058;8.688;2022-08-25T12:59:16;99987.66;;;30.91
51149;BMP280;37210;50.058;8.688;2022-08-25T13:02:05;99984.22;;;30.68
51149;BMP280;37210;50.058;8.688;2022-08-25T13:05:02;99982.19;;;30.81
51149;BMP280;37210;50.058;8.688;2022-08-25T13:08:05;99969.91;;;30.98
51149;BMP280;37210;50.058;8.688;2022-08-25T13:10:50;99966.78;;;30.51
51149;BMP280;37210;50.058;8.688;2022-08-25T13:13:35;99948.41;;;30.25
51149;BMP280;37210;50.058;8.688;2022-08-25T13:16:16;99974.81;;;30.42
51149;BMP280;37210;50.058;8.688;2022-08-25T13:18:49;99972.50;;;30.78
51149;BMP280;37210;50.058;8.688;2022-08-25T13:21:19;99939.84;;;30.61
51149;BMP280;37210;50.058;8.688;2022-08-25T13:23:53;99959.56;;;30.82
51149;BMP280;37210;50.058;8.688;2022-08-25T13:26:27;99961.50;;;30.91
51149;BMP280;37210;50.058;8.688;2022-08-25T13:28:58;99962.50;;;30.49
51149;BMP280;37210;50.058;8.688;2022-08-25T13:31:28;99954.28;;;30.50
51149;BMP280;37210;50.058;8.688;2022-08-25T13:33:59;99960.00;;;30.57
51149;BMP280;37210;50.058;8.688;2022-08-25T13:36:41;99938.41;;;30.57
51149;BMP280;37210;50.058;8.688;2022-08-25T13:39:29;99948.16;;;30.99
51149;BMP280;37210;50.058;8.688;2022-08-25T13:42:01;99943.78;;;31.08
51149;BMP280;37210;50.058;8.688;2022-08-25T13:44:36;99938.78;;;31.03
51149;BMP280;37210;50.058;8.688;2022-08-25T13:47:07;99937.25;;;31.10
51149;BMP280;37210;50.058;8.688;2022-08-25T13:49:40;99923.38;;;30.94
51149;BMP280;37210;50.058;8.688;2022-08-25T13:52:16;99936.59;;;30.88
51149;BMP280;37210;50.058;8.688;2022-08-25T13:54:56;99915.97;;;31.26
51149;BMP280;37210;50.058;8.688;2022-08-25T13:57:29;99927.63;;;31.36
51149;BMP280;37210;50.058;8.688;2022-08-25T14:00:01;99926.78;;;31.26
51149;BMP280;37210;50.058;8.688;2022-08-25T14:02:42;99866.53;;;30.65
51149;BMP280;37210;50.058;8.688;2022-08-25T14:05:13;99897.19;;;31.34
51149;BMP280;37210;50.058;8.688;2022-08-25T14:07:56;99905.44;;;31.33
51149;BMP280;37210;50.058;8.688;2022-08-25T14:10:34;99929.38;;;31.37
51149;BMP280;37210;50.058;8.688;2022-08-25T14:13:15;99921.38;;;31.36
51149;BMP280;37210;50.058;8.688;2022-08-25T14:16:06;99922.44;;;31.05
51149;BMP280;37210;50.058;8.688;2022-08-25T14:18:38;99902.25;;;30.99
51149;BMP280;37210;50.058;8.688;2022-08-25T14:21:14;99908.22;;;31.52
51149;BMP280;37210;50.058;8.688;2022-08-25T14:23:42;99911.50;;;31.06
51149;BMP280;37210;50.058;8.688;2022-08-25T14:26:12;99895.13;;;30.68
51149;BMP280;37210;50.058;8.688;2022-08-25T14:28:41;99905.09;;;30.98
51149;BMP280;37210;50.058;8.688;2022-08-25T14:31:11;99900.16;;;31.12
51149;BMP280;37210;50.058;8.688;2022-08-25T14:33:51;99876.69;;;31.32
51149;BMP280;37210;50.058;8.688;2022-08-25T14:36:21;99891.53;;;31.57
51149;BMP280;37210;50.058;8.688;2022-08-25T14:38:48;99894.69;;;31.42
51149;BMP280;37210;50.058;8.688;2022-08-25T14:41:17;99888.84;;;31.57
51149;BMP280;37210;50.058;8.688;2022-08-25T14:43:46;99889.84;;;31.56
51149;BMP280;37210;50.058;8.688;2022-08-25T14:46:17;99866.75;;;31.32